createdAt,value
2023-09-06T00:00:34.210Z,16.55
2023-09-06T00:01:37.528Z,16.54
2023-09-06T00:02:39.923Z,16.54
2023-09-06T00:03:42.410Z,16.52
2023-09-06T00:04:45.079Z,16.51
2023-09-06T00:05:47.534Z,16.50
2023-09-06T00:06:49.981Z,16.48
2023-09-06T00:07:52.761Z,16.47
2023-09-06T00:08:55.128Z,16.44
2023-09-06T00:09:57.551Z,16.43
2023-09-06T00:11:02.577Z,16.42
2023-09-06T00:12:05.866Z,16.38
2023-09-06T00:13:08.941Z,16.36
2023-09-06T00:14:12.558Z,16.35
2023-09-06T00:15:15.604Z,16.34
2023-09-06T00:16:18.468Z,16.30
2023-09-06T00:17:20.891Z,16.31
2023-09-06T00:18:24.548Z,16.28
2023-09-06T00:19:27.090Z,16.26
2023-09-06T00:20:30.144Z,16.24
2023-09-06T00:21:33.746Z,16.23
2023-09-06T00:22:36.159Z,16.20
2023-09-06T00:23:38.520Z,16.19
2023-09-06T00:24:40.867Z,16.17
2023-09-06T00:25:43.321Z,16.17
2023-09-06T00:26:46.084Z,16.15
2023-09-06T00:27:48.575Z,16.12
2023-09-06T00:28:51.227Z,16.11
2023-09-06T00:29:53.567Z,16.10
2023-09-06T00:30:59.079Z,16.09
2023-09-06T00:32:02.007Z,16.06
2023-09-06T00:33:07.294Z,16.06
2023-09-06T00:34:09.788Z,16.04
2023-09-06T00:35:12.701Z,16.02
2023-09-06T00:36:15.090Z,16.01
2023-09-06T00:37:17.475Z,16.01
2023-09-06T00:38:22.827Z,15.98
2023-09-06T00:39:29.522Z,15.96
2023-09-06T00:40:33.104Z,15.94
2023-09-06T00:41:41.558Z,15.94
2023-09-06T00:42:47.872Z,15.94
2023-09-06T00:43:50.951Z,15.91
2023-09-06T00:44:53.351Z,15.91
2023-09-06T00:45:55.849Z,15.89
2023-09-06T00:47:00.872Z,15.87
2023-09-06T00:48:06.857Z,15.87
2023-09-06T00:49:09.399Z,15.87
2023-09-06T00:50:12.561Z,15.86
2023-09-06T00:51:14.922Z,15.86
2023-09-06T00:52:18.838Z,15.86
2023-09-06T00:53:23.397Z,15.85
2023-09-06T00:54:25.958Z,15.85
2023-09-06T00:55:28.452Z,15.86
2023-09-06T00:56:32.104Z,15.84
2023-09-06T00:57:34.517Z,15.85
2023-09-06T00:58:38.017Z,15.84
2023-09-06T00:59:41.376Z,15.83
2023-09-06T01:00:49.192Z,15.83
2023-09-06T01:01:52.046Z,15.83
2023-09-06T01:02:54.784Z,15.83
2023-09-06T01:03:58.576Z,15.83
2023-09-06T01:05:01.246Z,15.84
2023-09-06T01:06:13.572Z,15.84
2023-09-06T01:07:16.255Z,15.83
2023-09-06T01:08:29.378Z,15.83
2023-09-06T01:09:32.632Z,15.83
2023-09-06T01:10:36.049Z,15.81
2023-09-06T01:11:40.429Z,15.82
2023-09-06T01:12:42.975Z,15.83
2023-09-06T01:13:47.361Z,15.83
2023-09-06T01:14:49.865Z,15.83
2023-09-06T01:15:53.040Z,15.83
2023-09-06T01:16:57.417Z,15.83
2023-09-06T01:18:03.701Z,15.83
2023-09-06T01:19:08.120Z,15.82
2023-09-06T01:20:30.449Z,15.81
2023-09-06T01:21:40.121Z,15.80
2023-09-06T01:22:49.323Z,15.81
2023-09-06T01:23:53.054Z,15.80
2023-09-06T01:24:56.346Z,15.80
2023-09-06T01:25:58.821Z,15.79
2023-09-06T01:27:02.039Z,15.79
2023-09-06T01:28:04.919Z,15.77
2023-09-06T01:29:07.877Z,15.77
2023-09-06T01:30:10.728Z,15.75
2023-09-06T01:31:13.327Z,15.75
2023-09-06T01:32:16.406Z,15.72
2023-09-06T01:33:19.043Z,15.71
2023-09-06T01:34:21.415Z,15.69
2023-09-06T01:35:23.858Z,15.68
2023-09-06T01:36:26.850Z,15.65
2023-09-06T01:37:29.227Z,15.64
2023-09-06T01:38:34.234Z,15.62
2023-09-06T01:39:37.203Z,15.60
2023-09-06T01:40:39.667Z,15.58
2023-09-06T01:41:42.031Z,15.57
2023-09-06T01:42:45.577Z,15.53
2023-09-06T01:43:48.052Z,15.53
2023-09-06T01:44:50.715Z,15.51
2023-09-06T01:45:53.525Z,15.48
2023-09-06T01:46:57.362Z,15.46
2023-09-06T01:47:59.775Z,15.42
2023-09-06T01:49:02.200Z,15.42
2023-09-06T01:50:05.871Z,15.39
2023-09-06T01:51:09.980Z,15.38
2023-09-06T01:52:12.477Z,15.36
2023-09-06T01:53:15.975Z,15.34
2023-09-06T01:54:18.406Z,15.35
2023-09-06T01:55:21.824Z,15.31
2023-09-06T01:56:24.304Z,15.32
2023-09-06T01:57:26.813Z,15.29
2023-09-06T01:58:34.231Z,15.28
2023-09-06T01:59:37.236Z,15.27
2023-09-06T02:00:40.394Z,15.27
2023-09-06T02:01:42.982Z,15.25
2023-09-06T02:02:45.649Z,15.24
2023-09-06T02:03:48.344Z,15.25
2023-09-06T02:04:52.484Z,15.24
2023-09-06T02:05:54.834Z,15.22
2023-09-06T02:06:57.283Z,15.22
2023-09-06T02:08:00.359Z,15.22
2023-09-06T02:09:02.718Z,15.21
2023-09-06T02:10:05.587Z,15.21
2023-09-06T02:11:08.172Z,15.17
2023-09-06T02:12:10.641Z,15.17
2023-09-06T02:13:13.172Z,15.18
2023-09-06T02:14:15.654Z,15.15
2023-09-06T02:15:18.362Z,15.15
2023-09-06T02:16:21.011Z,15.15
2023-09-06T02:17:26.708Z,15.14
2023-09-06T02:18:29.441Z,15.13
2023-09-06T02:19:31.944Z,15.14
2023-09-06T02:20:34.752Z,15.13
2023-09-06T02:21:39.677Z,15.13
2023-09-06T02:22:44.964Z,15.11
2023-09-06T02:23:47.390Z,15.12
2023-09-06T02:24:49.822Z,15.10
2023-09-06T02:25:52.314Z,15.10
2023-09-06T02:26:55.385Z,15.10
2023-09-06T02:28:08.933Z,15.09
2023-09-06T02:29:12.626Z,15.09
2023-09-06T02:30:15.307Z,15.09
2023-09-06T02:31:17.782Z,15.07
2023-09-06T02:32:20.394Z,15.07
2023-09-06T02:33:22.890Z,15.06
2023-09-06T02:34:25.285Z,15.06
2023-09-06T02:35:28.537Z,15.05
2023-09-06T02:36:30.906Z,15.05
2023-09-06T02:37:33.387Z,15.03
2023-09-06T02:38:35.822Z,15.02
2023-09-06T02:39:38.453Z,15.00
2023-09-06T02:40:44.136Z,14.99
2023-09-06T02:41:48.163Z,14.98
2023-09-06T02:42:52.764Z,14.98
2023-09-06T02:43:55.211Z,14.96
2023-09-06T02:44:57.580Z,14.96
2023-09-06T02:46:04.590Z,14.94
2023-09-06T02:47:10.953Z,14.93
2023-09-06T02:48:18.341Z,14.91
2023-09-06T02:49:20.741Z,14.91
2023-09-06T02:50:25.778Z,14.90
2023-09-06T02:51:30.540Z,14.89
2023-09-06T02:52:37.159Z,14.88
2023-09-06T02:53:45.588Z,14.87
2023-09-06T02:54:48.983Z,14.86
2023-09-06T02:55:55.077Z,14.87
2023-09-06T02:56:58.718Z,14.85
2023-09-06T02:58:01.404Z,14.84
2023-09-06T02:59:04.841Z,14.82
2023-09-06T03:00:21.423Z,14.81
2023-09-06T03:01:23.833Z,14.79
2023-09-06T03:02:26.364Z,14.79
2023-09-06T03:03:29.827Z,14.78
2023-09-06T03:04:39.252Z,14.78
2023-09-06T03:05:44.920Z,14.76
2023-09-06T03:06:51.242Z,14.75
2023-09-06T03:07:55.199Z,14.74
2023-09-06T03:09:00.808Z,14.73
2023-09-06T03:10:03.750Z,14.71
2023-09-06T03:11:08.824Z,14.71
2023-09-06T03:12:15.722Z,14.71
2023-09-06T03:13:21.760Z,14.70
2023-09-06T03:14:31.611Z,14.68
2023-09-06T03:15:35.752Z,14.68
2023-09-06T03:16:43.728Z,14.67
2023-09-06T03:17:48.506Z,14.66
2023-09-06T03:18:52.648Z,14.65
2023-09-06T03:19:55.289Z,14.64
2023-09-06T03:20:57.684Z,14.63
2023-09-06T03:22:06.630Z,14.62
2023-09-06T03:23:19.709Z,14.63
2023-09-06T03:24:26.235Z,14.62
2023-09-06T03:25:30.214Z,14.59
2023-09-06T03:26:32.724Z,14.59
2023-09-06T03:27:37.415Z,14.57
2023-09-06T03:28:43.097Z,14.57
2023-09-06T03:29:54.229Z,14.55
2023-09-06T03:31:00.694Z,14.55
2023-09-06T03:32:10.600Z,14.53
2023-09-06T03:33:14.715Z,14.52
2023-09-06T03:34:17.262Z,14.52
2023-09-06T03:35:23.818Z,14.52
2023-09-06T03:36:26.317Z,14.51
2023-09-06T03:37:32.006Z,14.49
2023-09-06T03:38:36.309Z,14.49
2023-09-06T03:39:42.650Z,14.48
2023-09-06T03:40:45.809Z,14.46
2023-09-06T03:41:49.869Z,14.47
2023-09-06T03:42:58.470Z,14.46
2023-09-06T03:44:00.911Z,14.45
2023-09-06T03:45:04.550Z,14.44
2023-09-06T03:46:08.893Z,14.43
2023-09-06T03:47:17.484Z,14.42
2023-09-06T03:48:22.209Z,14.41
2023-09-06T03:50:31.620Z,14.41
2023-09-06T03:51:34.336Z,14.40
2023-09-06T03:52:37.674Z,14.40
2023-09-06T03:53:40.105Z,14.39
2023-09-06T03:54:44.932Z,14.39
2023-09-06T03:55:47.949Z,14.38
2023-09-06T03:56:51.254Z,14.38
2023-09-06T03:57:54.023Z,14.35
2023-09-06T03:58:57.270Z,14.36
2023-09-06T04:00:00.428Z,14.34
2023-09-06T04:01:05.277Z,14.35
2023-09-06T04:02:15.024Z,14.35
2023-09-06T04:03:24.388Z,14.34
2023-09-06T04:04:30.229Z,14.34
2023-09-06T04:05:33.911Z,14.32
2023-09-06T04:06:38.219Z,14.32
2023-09-06T04:07:40.732Z,14.32
2023-09-06T04:08:44.694Z,14.32
2023-09-06T04:09:47.204Z,14.32
2023-09-06T04:10:50.624Z,14.32
2023-09-06T04:11:53.619Z,14.32
2023-09-06T04:12:56.778Z,14.31
2023-09-06T04:13:59.893Z,14.31
2023-09-06T04:15:04.933Z,14.31
2023-09-06T04:16:09.002Z,14.31
2023-09-06T04:17:13.533Z,14.31
2023-09-06T04:18:16.120Z,14.31
2023-09-06T04:19:18.615Z,14.31
2023-09-06T04:20:21.137Z,14.29
2023-09-06T04:21:23.905Z,14.30
2023-09-06T04:22:26.272Z,14.30
2023-09-06T04:23:28.753Z,14.30
2023-09-06T04:24:35.343Z,14.30
2023-09-06T04:25:46.547Z,14.29
2023-09-06T04:26:52.563Z,14.30
2023-09-06T04:27:58.368Z,14.29
2023-09-06T04:29:04.204Z,14.29
2023-09-06T04:30:08.395Z,14.29
2023-09-06T04:31:11.128Z,14.28
2023-09-06T04:32:18.783Z,14.27
2023-09-06T04:33:21.405Z,14.27
2023-09-06T04:34:31.579Z,14.27
2023-09-06T04:35:46.014Z,14.27
2023-09-06T04:36:49.737Z,14.25
2023-09-06T04:37:55.437Z,14.27
2023-09-06T04:38:59.668Z,14.26
2023-09-06T04:40:04.242Z,14.25
2023-09-06T04:41:06.817Z,14.25
2023-09-06T04:42:14.930Z,14.27
2023-09-06T04:43:18.488Z,14.26
2023-09-06T04:44:26.041Z,14.24
2023-09-06T04:45:29.710Z,14.26
2023-09-06T04:46:32.294Z,14.27
2023-09-06T04:47:39.009Z,14.27
2023-09-06T04:48:41.920Z,14.28
2023-09-06T04:49:48.077Z,14.27
2023-09-06T04:50:51.734Z,14.27
2023-09-06T04:51:54.397Z,14.28
2023-09-06T04:52:58.109Z,14.28
2023-09-06T04:54:01.849Z,14.27
2023-09-06T04:55:11.771Z,14.25
2023-09-06T04:56:14.429Z,14.25
2023-09-06T04:57:23.295Z,14.26
2023-09-06T04:58:25.835Z,14.27
2023-09-06T04:59:28.789Z,14.25
2023-09-06T05:00:34.548Z,14.27
2023-09-06T05:01:36.937Z,14.27
2023-09-06T05:02:39.512Z,14.25
2023-09-06T05:03:42.196Z,14.26
2023-09-06T05:04:45.458Z,14.26
2023-09-06T05:05:48.862Z,14.28
2023-09-06T05:06:52.302Z,14.29
2023-09-06T05:07:55.119Z,14.30
2023-09-06T05:08:58.206Z,14.32
2023-09-06T05:10:02.401Z,14.35
2023-09-06T05:11:04.787Z,14.38
2023-09-06T05:12:09.309Z,14.39
2023-09-06T05:13:13.225Z,14.44
2023-09-06T05:14:18.046Z,14.47
2023-09-06T05:15:21.265Z,14.51
2023-09-06T05:16:23.805Z,14.56
2023-09-06T05:17:26.749Z,14.60
2023-09-06T05:18:30.313Z,14.66
2023-09-06T05:19:34.053Z,14.71
2023-09-06T05:20:39.429Z,14.76
2023-09-06T05:21:46.556Z,14.82
2023-09-06T05:22:48.955Z,14.88
2023-09-06T05:23:51.455Z,14.96
2023-09-06T05:24:53.890Z,15.03
2023-09-06T05:25:57.426Z,15.11
2023-09-06T05:27:07.728Z,15.22
2023-09-06T05:28:13.948Z,15.30
2023-09-06T05:29:19.932Z,15.39
2023-09-06T05:30:22.370Z,15.47
2023-09-06T05:31:25.012Z,15.57
2023-09-06T05:32:29.668Z,15.68
2023-09-06T05:33:32.643Z,15.77
2023-09-06T05:34:36.479Z,15.87
2023-09-06T05:35:42.629Z,15.98
2023-09-06T05:36:45.042Z,16.08
2023-09-06T05:37:47.494Z,16.19
2023-09-06T05:38:49.962Z,16.30
2023-09-06T05:39:54.378Z,16.42
2023-09-06T05:40:58.736Z,16.53
2023-09-06T05:42:09.090Z,16.65
2023-09-06T05:43:11.756Z,16.74
2023-09-06T05:44:15.329Z,16.84
2023-09-06T05:45:19.875Z,16.96
2023-09-06T05:46:33.237Z,17.07
2023-09-06T05:47:42.768Z,17.20
2023-09-06T05:48:45.548Z,17.33
2023-09-06T05:49:49.527Z,17.44
2023-09-06T05:50:52.241Z,17.55
2023-09-06T05:51:55.135Z,17.65
2023-09-06T05:52:57.741Z,17.74
2023-09-06T05:54:01.891Z,17.85
2023-09-06T05:55:07.020Z,17.97
2023-09-06T05:56:10.419Z,18.08
2023-09-06T05:57:12.794Z,18.18
2023-09-06T05:58:16.333Z,18.28
2023-09-06T05:59:20.696Z,18.39
2023-09-06T06:00:24.123Z,18.50
2023-09-06T06:01:29.752Z,18.64
2023-09-06T06:02:33.030Z,18.74
2023-09-06T06:03:37.624Z,18.84
2023-09-06T06:04:41.319Z,18.95
2023-09-06T06:05:44.241Z,19.04
2023-09-06T06:06:46.743Z,19.13
2023-09-06T06:07:49.215Z,19.21
2023-09-06T06:08:51.644Z,19.31
2023-09-06T06:09:54.119Z,19.41
2023-09-06T06:10:57.718Z,19.50
2023-09-06T06:12:00.232Z,19.58
2023-09-06T06:13:05.127Z,19.67
2023-09-06T06:14:10.902Z,19.75
2023-09-06T06:15:14.963Z,19.87
2023-09-06T06:16:17.569Z,19.96
2023-09-06T06:17:20.230Z,20.06
2023-09-06T06:18:26.915Z,20.13
2023-09-06T06:19:29.608Z,20.23
2023-09-06T06:20:44.095Z,20.31
2023-09-06T06:21:47.592Z,20.39
2023-09-06T06:22:50.060Z,20.52
2023-09-06T06:23:52.471Z,20.62
2023-09-06T06:24:54.946Z,20.73
2023-09-06T06:25:57.487Z,20.84
2023-09-06T06:26:59.894Z,20.94
2023-09-06T06:28:02.300Z,21.05
2023-09-06T06:29:05.440Z,21.15
2023-09-06T06:30:09.520Z,21.25
2023-09-06T06:31:12.601Z,21.32
2023-09-06T06:32:15.255Z,21.42
2023-09-06T06:33:17.732Z,21.54
2023-09-06T06:34:20.609Z,21.63
2023-09-06T06:35:23.055Z,21.72
2023-09-06T06:36:25.524Z,21.82
2023-09-06T06:37:28.413Z,21.90
2023-09-06T06:38:31.258Z,21.99
2023-09-06T06:39:33.939Z,22.06
2023-09-06T06:40:38.206Z,22.14
2023-09-06T06:41:41.707Z,22.20
2023-09-06T06:42:46.251Z,22.27
2023-09-06T06:43:48.726Z,22.35
2023-09-06T06:44:51.118Z,22.46
2023-09-06T06:45:55.431Z,22.55
2023-09-06T06:46:57.997Z,22.65
2023-09-06T06:48:00.497Z,22.75
2023-09-06T06:49:05.944Z,22.85
2023-09-06T06:50:08.712Z,22.96
2023-09-06T06:51:11.181Z,23.05
2023-09-06T06:52:13.562Z,23.12
2023-09-06T06:53:16.362Z,23.22
2023-09-06T06:54:19.270Z,23.31
2023-09-06T06:55:21.776Z,23.36
2023-09-06T06:56:24.950Z,23.43
2023-09-06T06:57:27.484Z,23.51
2023-09-06T06:58:30.012Z,23.60
2023-09-06T06:59:32.623Z,23.68
2023-09-06T07:00:38.021Z,23.77
2023-09-06T07:01:40.894Z,23.85
2023-09-06T07:02:43.273Z,23.93
2023-09-06T07:03:45.729Z,24.01
2023-09-06T07:04:48.912Z,24.10
2023-09-06T07:05:51.294Z,24.18
2023-09-06T07:06:54.758Z,24.29
2023-09-06T07:07:57.138Z,24.39
2023-09-06T07:08:59.789Z,24.46
2023-09-06T07:10:02.933Z,24.58
2023-09-06T07:11:06.422Z,24.68
2023-09-06T07:12:08.849Z,24.80
2023-09-06T07:13:11.215Z,24.92
2023-09-06T07:14:13.616Z,24.98
2023-09-06T07:15:16.137Z,25.03
2023-09-06T07:16:21.428Z,25.10
2023-09-06T07:17:24.041Z,25.13
2023-09-06T07:18:26.701Z,25.17
2023-09-06T07:19:29.173Z,25.21
2023-09-06T07:20:31.532Z,25.25
2023-09-06T07:21:34.002Z,25.32
2023-09-06T07:22:36.686Z,25.37
2023-09-06T07:23:39.611Z,25.43
2023-09-06T07:24:42.082Z,25.46
2023-09-06T07:25:48.306Z,25.50
2023-09-06T07:26:50.826Z,25.50
2023-09-06T07:27:53.286Z,25.55
2023-09-06T07:28:55.719Z,25.57
2023-09-06T07:29:58.357Z,25.66
2023-09-06T07:31:01.660Z,25.72
2023-09-06T07:32:04.711Z,25.75
2023-09-06T07:33:07.348Z,25.80
2023-09-06T07:34:10.028Z,25.84
2023-09-06T07:35:13.663Z,25.90
2023-09-06T07:36:16.194Z,25.96
2023-09-06T07:37:18.916Z,26.00
2023-09-06T07:38:21.318Z,26.01
2023-09-06T07:39:23.951Z,26.05
2023-09-06T07:40:26.362Z,26.12
2023-09-06T07:41:28.880Z,26.16
2023-09-06T07:42:31.272Z,26.23
2023-09-06T07:43:36.197Z,26.26
2023-09-06T07:44:38.766Z,26.30
2023-09-06T07:45:44.020Z,26.36
2023-09-06T07:46:50.213Z,26.36
2023-09-06T07:47:53.066Z,26.41
2023-09-06T07:48:56.344Z,26.42
2023-09-06T07:49:58.908Z,26.46
2023-09-06T07:51:01.514Z,26.51
2023-09-06T07:52:06.586Z,26.54
2023-09-06T07:53:10.869Z,26.59
2023-09-06T07:54:13.350Z,26.63
2023-09-06T07:55:15.733Z,26.69
2023-09-06T07:56:18.586Z,26.75
2023-09-06T07:57:21.096Z,26.81
2023-09-06T07:58:24.172Z,26.87
2023-09-06T07:59:27.053Z,26.92
2023-09-06T08:00:31.968Z,26.98
2023-09-06T08:01:34.519Z,27.02
2023-09-06T08:02:37.381Z,27.08
2023-09-06T08:03:39.927Z,27.12
2023-09-06T08:04:47.215Z,27.19
2023-09-06T08:05:51.586Z,27.25
2023-09-06T08:07:02.790Z,27.30
2023-09-06T08:08:10.693Z,27.37
2023-09-06T08:09:14.103Z,27.40
2023-09-06T08:10:16.707Z,27.45
2023-09-06T08:11:19.476Z,27.49
2023-09-06T08:12:21.913Z,27.56
2023-09-06T08:13:24.423Z,27.61
2023-09-06T08:14:27.341Z,27.65
2023-09-06T08:15:30.007Z,27.70
2023-09-06T08:16:33.616Z,27.73
2023-09-06T08:17:36.064Z,27.77
2023-09-06T08:18:38.523Z,27.80
2023-09-06T08:19:41.132Z,27.80
2023-09-06T08:20:43.550Z,27.82
2023-09-06T08:21:45.979Z,27.84
2023-09-06T08:22:48.476Z,27.87
2023-09-06T08:23:51.103Z,27.91
2023-09-06T08:24:53.464Z,27.95
2023-09-06T08:25:56.772Z,28.00
2023-09-06T08:26:59.776Z,28.03
2023-09-06T08:28:02.214Z,28.09
2023-09-06T08:29:06.555Z,28.12
2023-09-06T08:30:14.105Z,28.14
2023-09-06T08:31:16.785Z,28.17
2023-09-06T08:32:19.383Z,28.22
2023-09-06T08:33:22.003Z,28.24
2023-09-06T08:34:24.548Z,28.25
2023-09-06T08:35:29.174Z,28.28
2023-09-06T08:36:31.695Z,28.30
2023-09-06T08:37:37.937Z,28.31
2023-09-06T08:38:43.572Z,28.33
2023-09-06T08:39:46.141Z,28.31
2023-09-06T08:40:48.635Z,28.34
2023-09-06T08:41:53.189Z,28.39
2023-09-06T08:42:56.971Z,28.42
2023-09-06T08:44:04.909Z,28.46
2023-09-06T08:45:11.399Z,28.46
2023-09-06T08:46:25.346Z,28.50
2023-09-06T08:47:29.247Z,28.52
2023-09-06T08:48:33.519Z,28.56
2023-09-06T08:49:38.734Z,28.57
2023-09-06T08:50:41.985Z,28.59
2023-09-06T08:51:45.317Z,28.61
2023-09-06T08:52:51.881Z,28.64
2023-09-06T08:53:55.426Z,28.71
2023-09-06T08:54:57.791Z,28.72
2023-09-06T08:56:01.455Z,28.74
2023-09-06T08:57:05.109Z,28.79
2023-09-06T08:58:07.629Z,28.81
2023-09-06T08:59:10.571Z,28.88
2023-09-06T09:00:15.303Z,28.89
2023-09-06T09:01:17.785Z,28.95
2023-09-06T09:02:20.274Z,29.01
2023-09-06T09:03:22.841Z,29.01
2023-09-06T09:04:25.452Z,29.05
2023-09-06T09:05:28.026Z,29.09
2023-09-06T09:06:30.836Z,29.16
2023-09-06T09:07:33.480Z,29.22
2023-09-06T09:08:36.729Z,29.27
2023-09-06T09:10:10.047Z,29.35
2023-09-06T09:11:13.572Z,29.40
2023-09-06T09:12:16.294Z,29.45
2023-09-06T09:13:18.678Z,29.52
2023-09-06T09:14:21.634Z,29.55
2023-09-06T09:15:27.575Z,29.62
2023-09-06T09:16:30.513Z,29.66
2023-09-06T09:17:37.968Z,29.72
2023-09-06T09:18:48.977Z,29.76
2023-09-06T09:19:53.191Z,29.81
2023-09-06T09:20:58.712Z,29.83
2023-09-06T09:22:09.464Z,29.85
2023-09-06T09:23:16.175Z,29.89
2023-09-06T09:24:31.727Z,29.95
2023-09-06T09:25:34.448Z,29.98
2023-09-06T09:26:37.184Z,30.02
2023-09-06T09:27:39.577Z,30.06
2023-09-06T09:28:43.199Z,30.12
2023-09-06T09:29:46.168Z,30.17
2023-09-06T09:30:49.752Z,30.21
2023-09-06T09:31:52.218Z,30.21
2023-09-06T09:33:00.246Z,30.22
2023-09-06T09:34:02.847Z,30.24
2023-09-06T09:35:05.899Z,30.26
2023-09-06T09:36:08.658Z,30.28
2023-09-06T09:37:11.170Z,30.29
2023-09-06T09:38:13.688Z,30.32
2023-09-06T09:39:16.280Z,30.35
2023-09-06T09:40:22.530Z,30.33
2023-09-06T09:41:24.875Z,30.34
2023-09-06T09:42:28.112Z,30.33
2023-09-06T09:43:31.518Z,30.34
2023-09-06T09:44:35.037Z,30.35
2023-09-06T09:45:45.580Z,30.35
2023-09-06T09:46:48.073Z,30.35
2023-09-06T09:47:53.977Z,30.37
2023-09-06T09:49:01.315Z,30.37
2023-09-06T09:50:04.415Z,30.38
2023-09-06T09:51:09.312Z,30.37
2023-09-06T09:52:15.815Z,30.39
2023-09-06T09:53:24.584Z,30.39
2023-09-06T09:54:32.331Z,30.39
2023-09-06T09:55:40.165Z,30.39
2023-09-06T09:56:48.765Z,30.38
2023-09-06T09:57:52.802Z,30.39
2023-09-06T09:58:56.553Z,30.40
2023-09-06T09:59:59.548Z,30.42
2023-09-06T10:01:05.034Z,30.44
2023-09-06T10:02:10.589Z,30.47
2023-09-06T10:03:14.750Z,30.49
2023-09-06T10:04:17.693Z,30.50
2023-09-06T10:05:21.013Z,30.50
2023-09-06T10:06:26.230Z,30.53
2023-09-06T10:07:46.749Z,30.54
2023-09-06T10:08:54.610Z,30.50
2023-09-06T10:09:57.676Z,30.51
2023-09-06T10:11:00.353Z,30.51
2023-09-06T10:12:05.170Z,30.53
2023-09-06T10:13:11.058Z,30.54
2023-09-06T10:14:16.243Z,30.53
2023-09-06T10:15:24.860Z,30.52
2023-09-06T10:16:27.971Z,30.53
2023-09-06T10:17:31.275Z,30.52
2023-09-06T10:18:34.228Z,30.51
2023-09-06T10:19:52.391Z,30.52
2023-09-06T10:20:57.763Z,30.50
2023-09-06T10:22:02.823Z,30.50
2023-09-06T10:23:09.069Z,30.50
2023-09-06T10:24:23.925Z,30.52
2023-09-06T10:25:27.001Z,30.54
2023-09-06T10:26:35.649Z,30.54
2023-09-06T10:27:52.012Z,30.57
2023-09-06T10:29:01.952Z,30.57
2023-09-06T10:30:07.860Z,30.59
2023-09-06T10:31:13.918Z,30.57
2023-09-06T10:32:16.339Z,30.57
2023-09-06T10:33:32.613Z,30.59
2023-09-06T10:34:35.001Z,30.58
2023-09-06T10:35:46.696Z,30.60
2023-09-06T10:36:58.877Z,30.60
2023-09-06T10:38:06.054Z,30.60
2023-09-06T10:39:15.827Z,30.60
2023-09-06T10:40:20.364Z,30.60
2023-09-06T10:41:28.156Z,30.61
2023-09-06T10:42:30.688Z,30.60
2023-09-06T10:43:55.720Z,30.62
2023-09-06T10:45:00.506Z,30.61
2023-09-06T10:46:05.948Z,30.63
2023-09-06T10:47:32.357Z,30.62
2023-09-06T10:48:35.172Z,30.61
2023-09-06T10:49:37.653Z,30.60
2023-09-06T10:50:40.865Z,30.60
2023-09-06T10:52:03.067Z,30.63
2023-09-06T10:53:07.347Z,30.64
2023-09-06T10:54:10.772Z,30.64
2023-09-06T10:55:16.576Z,30.67
2023-09-06T10:56:29.428Z,30.69
2023-09-06T10:57:51.886Z,30.71
2023-09-06T10:58:57.849Z,30.72
2023-09-06T11:00:00.349Z,30.74
2023-09-06T11:01:20.022Z,30.75
2023-09-06T11:02:23.228Z,30.75
2023-09-06T11:03:33.382Z,30.76
2023-09-06T11:04:36.128Z,30.75
2023-09-06T11:05:51.679Z,30.76
2023-09-06T11:06:54.256Z,30.76
2023-09-06T11:07:56.824Z,30.77
2023-09-06T11:09:06.950Z,30.74
2023-09-06T11:10:11.061Z,30.73
2023-09-06T11:11:15.555Z,30.72
2023-09-06T11:12:18.763Z,30.71
2023-09-06T11:13:21.648Z,30.70
2023-09-06T11:14:29.601Z,30.70
2023-09-06T11:15:36.438Z,30.69
2023-09-06T11:16:47.566Z,30.70
2023-09-06T11:17:50.086Z,30.69
2023-09-06T11:18:52.549Z,30.69
2023-09-06T11:19:55.406Z,30.67
2023-09-06T11:20:57.905Z,30.65
2023-09-06T11:22:11.862Z,30.65
2023-09-06T11:23:14.250Z,30.59
2023-09-06T11:24:16.872Z,30.58
2023-09-06T11:25:24.332Z,30.57
2023-09-06T11:26:28.540Z,30.57
2023-09-06T11:27:35.173Z,30.54
2023-09-06T11:28:39.852Z,30.52
2023-09-06T11:29:42.735Z,30.52
2023-09-06T11:30:48.404Z,30.49
2023-09-06T11:31:54.240Z,30.48
2023-09-06T11:32:58.471Z,30.46
2023-09-06T11:34:05.971Z,30.41
2023-09-06T11:35:10.123Z,30.39
2023-09-06T11:36:14.255Z,30.36
2023-09-06T11:37:20.010Z,30.34
2023-09-06T11:38:26.772Z,30.30
2023-09-06T11:39:30.619Z,30.28
2023-09-06T11:40:36.243Z,30.27
2023-09-06T11:41:40.749Z,30.23
2023-09-06T11:42:46.988Z,30.20
2023-09-06T11:43:55.284Z,30.17
2023-09-06T11:44:59.579Z,30.13
2023-09-06T11:46:05.941Z,30.11
2023-09-06T11:47:09.626Z,30.08
2023-09-06T11:48:16.065Z,30.06
2023-09-06T11:49:22.902Z,30.03
2023-09-06T11:50:26.291Z,30.00
2023-09-06T11:51:30.071Z,29.96
2023-09-06T11:52:36.587Z,29.93
2023-09-06T11:53:55.728Z,29.88
2023-09-06T11:54:59.670Z,29.86
2023-09-06T11:56:02.297Z,29.83
2023-09-06T11:57:06.156Z,29.80
2023-09-06T11:58:17.755Z,29.76
2023-09-06T11:59:21.692Z,29.73
2023-09-06T12:00:38.281Z,29.73
2023-09-06T12:01:42.239Z,29.68
2023-09-06T12:02:49.193Z,29.64
2023-09-06T12:03:54.648Z,29.62
2023-09-06T12:05:02.526Z,29.58
2023-09-06T12:06:08.724Z,29.54
2023-09-06T12:07:11.179Z,29.53
2023-09-06T12:08:19.152Z,29.52
2023-09-06T12:09:22.338Z,29.50
2023-09-06T12:10:24.850Z,29.48
2023-09-06T12:11:28.776Z,29.41
2023-09-06T12:12:41.023Z,29.40
2023-09-06T12:13:43.374Z,29.37
2023-09-06T12:14:45.907Z,29.33
2023-09-06T12:15:48.908Z,29.32
2023-09-06T12:16:51.419Z,29.31
2023-09-06T12:17:53.891Z,29.29
2023-09-06T12:18:56.655Z,29.26
2023-09-06T12:20:00.408Z,29.24
2023-09-06T12:21:06.753Z,29.23
2023-09-06T12:22:09.231Z,29.19
2023-09-06T12:23:11.692Z,29.16
2023-09-06T12:24:14.179Z,29.13
2023-09-06T12:25:21.071Z,29.11
2023-09-06T12:26:23.856Z,29.07
2023-09-06T12:27:26.790Z,29.04
2023-09-06T12:28:30.760Z,29.02
2023-09-06T12:29:33.348Z,28.96
2023-09-06T12:30:35.709Z,28.96
2023-09-06T12:31:38.226Z,28.93
2023-09-06T12:32:41.718Z,28.92
2023-09-06T12:33:47.227Z,28.87
2023-09-06T12:34:50.051Z,28.86
2023-09-06T12:36:02.462Z,28.85
2023-09-06T12:37:05.034Z,28.84
2023-09-06T12:38:08.091Z,28.82
2023-09-06T12:39:10.569Z,28.82
2023-09-06T12:40:14.723Z,28.80
2023-09-06T12:41:17.273Z,28.79
2023-09-06T12:42:19.664Z,28.77
2023-09-06T12:43:22.516Z,28.76
2023-09-06T12:44:24.933Z,28.76
2023-09-06T12:45:32.847Z,28.74
2023-09-06T12:46:35.685Z,28.71
2023-09-06T12:47:38.662Z,28.71
2023-09-06T12:48:44.281Z,28.71
2023-09-06T12:49:47.287Z,28.64
2023-09-06T12:50:50.735Z,28.63
2023-09-06T12:51:53.143Z,28.64
2023-09-06T12:52:56.359Z,28.61
2023-09-06T12:53:58.935Z,28.60
2023-09-06T12:55:06.881Z,28.61
2023-09-06T12:56:13.646Z,28.60
2023-09-06T12:57:18.821Z,28.59
2023-09-06T12:58:21.285Z,28.58
2023-09-06T12:59:23.744Z,28.58
2023-09-06T13:00:27.486Z,28.57
2023-09-06T13:01:29.950Z,28.57
2023-09-06T13:02:33.649Z,28.56
2023-09-06T13:03:36.416Z,28.55
2023-09-06T13:04:38.941Z,28.55
2023-09-06T13:05:42.922Z,28.55
2023-09-06T13:06:45.421Z,28.54
2023-09-06T13:07:48.068Z,28.52
2023-09-06T13:08:51.919Z,28.51
2023-09-06T13:09:54.411Z,28.50
2023-09-06T13:10:56.859Z,28.50
2023-09-06T13:11:59.302Z,28.46
2023-09-06T13:13:01.648Z,28.46
2023-09-06T13:14:04.526Z,28.46
2023-09-06T13:15:07.469Z,28.44
2023-09-06T13:16:09.883Z,28.43
2023-09-06T13:17:12.453Z,28.42
2023-09-06T13:18:14.907Z,28.40
2023-09-06T13:19:17.527Z,28.40
2023-09-06T13:20:19.937Z,28.39
2023-09-06T13:21:22.478Z,28.37
2023-09-06T13:22:24.971Z,28.37
2023-09-06T13:23:27.492Z,28.35
2023-09-06T13:24:34.756Z,28.34
2023-09-06T13:25:37.531Z,28.32
2023-09-06T13:26:40.043Z,28.28
2023-09-06T13:27:45.294Z,28.27
2023-09-06T13:28:47.712Z,28.25
2023-09-06T13:29:50.908Z,28.25
2023-09-06T13:30:53.629Z,28.25
2023-09-06T13:31:56.220Z,28.26
2023-09-06T13:32:58.743Z,28.24
2023-09-06T13:34:03.347Z,28.24
2023-09-06T13:35:06.532Z,28.23
2023-09-06T13:36:09.010Z,28.24
2023-09-06T13:37:11.448Z,28.22
2023-09-06T13:38:13.893Z,28.20
2023-09-06T13:39:18.564Z,28.19
2023-09-06T13:40:21.303Z,28.18
2023-09-06T13:41:23.746Z,28.19
2023-09-06T13:42:26.416Z,28.16
2023-09-06T13:43:29.078Z,28.16
2023-09-06T13:44:32.611Z,28.17
2023-09-06T13:45:35.057Z,28.19
2023-09-06T13:46:37.575Z,28.18
2023-09-06T13:47:40.066Z,28.18
2023-09-06T13:48:42.679Z,28.19
2023-09-06T13:49:45.198Z,28.18
2023-09-06T13:50:47.597Z,28.18